Flight Track Log - Related Links

Times and Time Zones

All times are in EDT time to prevent confusion due to time zone crossing. See the ELJ384 flight status page for this flight to view local times or setup timezone preferences in your user account.

Time Position Orientation Groundspeed Altitude Reporting Facility
EDT Latitude Longitude Course Direction KTS MPH feet Rate Location/Type
Fri 04:56:50 PM 41.0333 -73.7333 311° West 201 231 1,900  Level New York TRACON
Fri 04:57:50 PM 41.0667 -73.7833 311° West 209 241 3,500 2,150 Climbing New York TRACON
Fri 04:58:50 PM 41.0833 -73.8667 285° West 221 254 6,200 2,450 Climbing New York TRACON
Fri 04:59:50 PM 41.0333 -73.9167 217° Southwest 263 303 8,400 1,400 Climbing New York TRACON
Fri 05:00:50 PM 40.9500 -73.8667 156° South 291 335 9,000 1,050 Climbing New York TRACON
Fri 05:01:50 PM 40.8833 -73.8333 159° South 289 333 10,500 1,500 Climbing New York TRACON
Fri 05:02:50 PM 40.8333 -73.9000 225° Southwest 244 281 12,000 750 Climbing New York TRACON
Fri 05:03:50 PM 40.8167 -73.9833 255° West 243 280 12,000 550 Level New York TRACON
Fri 05:04:50 PM 40.8000 -74.0833 258° West 270 311 13,100 1,450 Climbing New York TRACON
Fri 05:05:50 PM 40.7667 -74.1833 246° West 299 344 14,900 1,253 Climbing New York TRACON
Fri 05:07:52 PM 40.6839 -74.3697 240° Southwest 297 342 16,900 1,377 Climbing New York Center
Fri 05:08:53 PM 40.6436 -74.4606 240° Southwest 314 361 19,100 2,723 Climbing New York Center
Fri 05:09:51 PM 40.5986 -74.5619 240° Southwest 319 367 22,300 3,076 Climbing New York Center
Fri 05:10:52 PM 40.5514 -74.6658 239° Southwest 324 373 25,200 2,557 Climbing New York Center
Fri 05:11:53 PM 40.4897 -74.7661 231° Southwest 341 392 27,500 2,319 Climbing New York Center
Fri 05:12:51 PM 40.4281 -74.8661 231° Southwest 353 406 29,800 2,644 Climbing New York Center
Fri 05:13:51 PM 40.3661 -74.9661 231° Southwest 363 418 32,700 2,683 Climbing New York Center
Fri 05:14:54 PM 40.3019 -75.0683 231° Southwest 363 418 35,300 2,115 Climbing New York Center
Fri 05:15:53 PM 40.2400 -75.1706 232° Southwest 363 418 37,000 1,311 Climbing New York Center
Fri 05:16:53 PM 40.1756 -75.2722 230° Southwest 363 418 37,900 508 Climbing New York Center
Fri 05:17:51 PM 40.1067 -75.3819 231° Southwest 374 430 38,000 51 Climbing New York Center
Fri 05:18:51 PM 40.0378 -75.4911 231° Southwest 386 444 38,000  Level New York Center
Fri 05:19:53 PM 39.9667 -75.6000 230° Southwest 392 451 38,000  Level New York Center
Fri 05:20:52 PM 39.8978 -75.7064 230° Southwest 392 451 38,000  Level New York Center
Fri 05:21:51 PM 39.8306 -75.8150 231° Southwest 392 451 38,000  Level New York Center
Fri 05:22:52 PM 39.7719 -75.9136 232° Southwest 390 449 38,000  Level New York Center
Fri 05:23:53 PM 39.6872 -76.0422 229° Southwest 390 449 38,000  Level New York Center
Fri 05:24:53 PM 39.6217 -76.1506 232° Southwest 390 449 38,000  Level New York Center
Fri 05:25:53 PM 39.5522 -76.2558 229° Southwest 390 449 38,000  Level New York Center
Fri 05:27:09 PM 39.4650 -76.3872 229° Southwest 377 434 38,000  Level Washington Center
Fri 05:28:09 PM 39.3997 -76.4914 231° Southwest 377 434 38,000  Level Washington Center
Fri 05:29:07 PM 39.3364 -76.5897 230° Southwest 382 440 38,000  Level Washington Center
Fri 05:30:07 PM 39.2689 -76.6961 231° Southwest 387 445 38,000  Level Washington Center
Fri 05:31:08 PM 39.2011 -76.7994 230° Southwest 387 445 38,000  Level Washington Center
Fri 05:32:09 PM 39.1333 -76.9028 230° Southwest 387 445 38,000  Level Washington Center
Fri 05:33:10 PM 39.0633 -77.0111 230° Southwest 387 445 38,000  Level Washington Center
Fri 05:34:07 PM 38.9789 -77.1136 223° Southwest 393 452 38,000  Level Washington Center
Fri 05:35:08 PM 38.8942 -77.2053 220° Southwest 393 452 38,000  Level Washington Center
Fri 05:36:09 PM 38.8117 -77.2942 220° Southwest 393 452 38,000  Level Washington Center
Fri 05:37:07 PM 38.7292 -77.3853 221° Southwest 393 452 38,000  Level Washington Center
Fri 05:38:08 PM 38.6464 -77.4708 219° Southwest 393 452 38,000  Level Washington Center
Fri 05:39:09 PM 38.5658 -77.5619 222° Southwest 387 445 38,000  Level Washington Center
Fri 05:40:10 PM 38.4831 -77.6497 220° Southwest 387 445 38,000  Level Washington Center
Fri 05:41:07 PM 38.4000 -77.7403 221° Southwest 387 445 38,000  Level Washington Center
Fri 05:42:08 PM 38.3214 -77.8253 220° Southwest 387 445 38,000  Level Washington Center
Fri 05:43:08 PM 38.2364 -77.9153 220° Southwest 387 445 38,000  Level Washington Center
Fri 05:44:09 PM 38.1575 -78.0028 221° Southwest 382 440 38,000  Level Washington Center
Fri 05:45:09 PM 38.0764 -78.0897 220° Southwest 382 440 38,000  Level Washington Center
Fri 05:46:07 PM 38.0017 -78.1664 219° Southwest 382 440 38,000  Level Washington Center
Fri 05:47:07 PM 37.9100 -78.2581 218° Southwest 376 433 38,000  Level Washington Center
Fri 05:48:09 PM 37.8228 -78.3364 215° Southwest 388 447 38,000  Level Washington Center
Fri 05:49:07 PM 37.7481 -78.4100 218° Southwest 393 452 38,000  Level Washington Center
Fri 05:50:08 PM 37.6606 -78.4906 216° Southwest 393 452 38,000  Level Washington Center
Fri 05:51:08 PM 37.5731 -78.5736 217° Southwest 393 452 38,000  Level Washington Center
Fri 05:52:09 PM 37.4875 -78.6542 217° Southwest 393 452 38,000  Level Washington Center
Fri 05:53:07 PM 37.3914 -78.7444 217° Southwest 398 458 38,000  Level Washington Center
Fri 05:54:08 PM 37.3039 -78.8242 216° Southwest 398 458 38,000  Level Washington Center
Fri 05:55:09 PM 37.2181 -78.9042 217° Southwest 398 458 38,000  Level Washington Center
Fri 05:56:07 PM 37.1303 -78.9836 216° Southwest 398 458 38,000  Level Washington Center
Fri 05:57:07 PM 37.0444 -79.0658 217° Southwest 398 458 38,000  Level Washington Center
Fri 05:58:08 PM 36.9589 -79.1425 216° Southwest 398 458 38,000  Level Washington Center
Fri 05:59:08 PM 36.8817 -79.2142 217° Southwest 398 458 38,000  Level Washington Center
Fri 06:00:09 PM 36.7936 -79.2983 217° Southwest 398 458 38,000  Level Washington Center
Fri 06:01:09 PM 36.7056 -79.3744 215° Southwest 398 458 38,000  Level Washington Center
Fri 06:02:07 PM 36.6194 -79.4556 217° Southwest 398 458 38,000  Level Washington Center
Fri 06:03:08 PM 36.5250 -79.5414 216° Southwest 398 458 38,000  Level Washington Center
Fri 06:04:22 PM 36.4133 -79.6400 215° Southwest 408 470 38,000  Level Atlanta Center
Fri 06:05:22 PM 36.3364 -79.7089 216° Southwest 398 458 38,000  Level Atlanta Center
Fri 06:06:22 PM 36.2494 -79.7881 216° Southwest 393 452 38,000  Level Atlanta Center
Fri 06:07:22 PM 36.1647 -79.8672 217° Southwest 393 452 38,000  Level Atlanta Center
Fri 06:08:22 PM 36.0756 -79.9436 215° Southwest 393 452 38,000  Level Atlanta Center
Fri 06:09:22 PM 35.9694 -80.0158 209° Southwest 393 452 38,000  Level Atlanta Center
Fri 06:10:22 PM 35.8647 -80.0672 202° Southwest 399 459 38,000  Level Atlanta Center
Fri 06:11:22 PM 35.7619 -80.1181 202° Southwest 409 471 38,000  Level Atlanta Center
Fri 06:12:22 PM 35.6572 -80.1717 203° Southwest 409 471 38,000  Level Atlanta Center
Fri 06:13:22 PM 35.5650 -80.2169 202° Southwest 409 471 38,000  Level Atlanta Center
Fri 06:14:22 PM 35.4622 -80.2675 202° Southwest 409 471 38,000  Level Atlanta Center
Fri 06:15:22 PM 35.3553 -80.3233 203° Southwest 409 471 38,000  Level Atlanta Center
Fri 06:16:22 PM 35.2525 -80.3739 202° Southwest 409 471 38,000  Level Atlanta Center
Fri 06:17:22 PM 35.1436 -80.4269 202° Southwest 409 471 38,000  Level Atlanta Center
Fri 06:19:30 PM 34.9158 -80.5381 202° Southwest 417 480 38,000  Level Jacksonville Center
Fri 06:20:30 PM 34.8044 -80.5994 204° Southwest 411 473 38,000  Level Jacksonville Center
Fri 06:21:30 PM 34.7011 -80.6475 201° Southwest 406 467 38,000  Level Jacksonville Center
Fri 06:22:30 PM 34.5894 -80.7008 201° Southwest 412 474 38,000  Level Jacksonville Center
Fri 06:23:30 PM 34.4881 -80.7539 203° Southwest 412 474 38,000  Level Jacksonville Center
Fri 06:24:30 PM 34.3864 -80.7917 197° South 405 466 38,000  Level Jacksonville Center
Fri 06:25:30 PM 34.2831 -80.8519 206° Southwest 405 466 38,000  Level Jacksonville Center
Fri 06:26:30 PM 34.1836 -80.8994 202° Southwest 400 460 38,000  Level Jacksonville Center
Fri 06:27:30 PM 34.0822 -80.9494 202° Southwest 394 453 38,000  Level Jacksonville Center
Fri 06:28:30 PM 33.9808 -80.9992 202° Southwest 394 453 38,000  Level Jacksonville Center
Fri 06:29:30 PM 33.8814 -81.0414 199° South 394 453 38,000  Level Jacksonville Center
Fri 06:30:30 PM 33.7778 -81.0911 202° Southwest 394 453 38,000  Level Jacksonville Center
Fri 06:31:30 PM 33.6864 -81.1403 204° Southwest 394 453 38,000  Level Jacksonville Center
Fri 06:32:30 PM 33.5850 -81.1922 203° Southwest 394 453 38,000  Level Jacksonville Center
Fri 06:33:30 PM 33.4833 -81.2414 202° Southwest 394 453 38,000  Level Jacksonville Center
Fri 06:34:30 PM 33.3797 -81.2956 204° Southwest 394 453 38,000  Level Jacksonville Center
Fri 06:35:30 PM 33.2758 -81.3447 202° Southwest 400 460 38,000  Level Jacksonville Center
Fri 06:36:30 PM 33.1742 -81.3936 202° Southwest 400 460 38,000  Level Jacksonville Center
Fri 06:37:30 PM 33.0706 -81.4425 202° Southwest 400 460 38,000  Level Jacksonville Center
Fri 06:38:30 PM 32.9581 -81.4764 194° South 405 466 38,000  Level Jacksonville Center
Fri 06:39:30 PM 32.8394 -81.5056 192° South 423 487 38,000  Level Jacksonville Center
Fri 06:40:30 PM 32.7250 -81.5344 192° South 429 494 38,000  Level Jacksonville Center
Fri 06:41:30 PM 32.6022 -81.5633 191° South 420 483 38,000  Level Jacksonville Center
Fri 06:42:30 PM 32.4856 -81.5922 192° South 426 490 38,000  Level Jacksonville Center
Fri 06:43:30 PM 32.3814 -81.6183 192° South 426 490 38,000  Level Jacksonville Center
Fri 06:44:30 PM 32.2544 -81.6494 192° South 432 497 38,000  Level Jacksonville Center
Fri 06:45:30 PM 32.1503 -81.6731 191° South 427 491 38,000  Level Jacksonville Center
Fri 06:46:30 PM 32.0253 -81.7017 191° South 427 491 38,000  Level Jacksonville Center
Fri 06:47:30 PM 31.9106 -81.7300 192° South 419 482 38,000  Level Jacksonville Center
Fri 06:48:30 PM 31.8064 -81.7558 192° South 427 491 38,000  Level Jacksonville Center
Fri 06:49:30 PM 31.6814 -81.7867 192° South 427 491 38,000  Level Jacksonville Center
Fri 06:50:30 PM 31.5689 -81.8122 191° South 427 491 38,000  Level Jacksonville Center
Fri 06:51:30 PM 31.4564 -81.8381 191° South 427 491 38,000  Level Jacksonville Center
Fri 06:52:30 PM 31.3544 -81.8636 192° South 417 480 38,000  Level Jacksonville Center
Fri 06:53:30 PM 31.2439 -81.8867 190° South 417 480 38,000  Level Jacksonville Center
Fri 06:54:30 PM 31.1333 -81.9144 192° South 412 474 38,000  Level Jacksonville Center
Fri 06:55:30 PM 31.0231 -81.9422 192° South 412 474 38,000  Level Jacksonville Center
Fri 06:56:30 PM 30.9125 -81.9675 191° South 412 474 38,000  Level Jacksonville Center
Fri 06:57:30 PM 30.8000 -81.9928 191° South 412 474 38,000  Level Jacksonville Center
Fri 06:58:30 PM 30.6875 -82.0181 191° South 412 474 38,000  Level Jacksonville Center
Fri 06:59:30 PM 30.5747 -82.0456 192° South 417 480 38,000  Level Jacksonville Center
Fri 07:00:30 PM 30.4600 -82.0661 189° South 417 480 38,000  Level Jacksonville Center
Fri 07:01:30 PM 30.3433 -82.0933 191° South 417 480 38,000  Level Jacksonville Center
Fri 07:02:30 PM 30.2308 -82.1208 192° South 417 480 38,000  Level Jacksonville Center
Fri 07:03:30 PM 30.1075 -82.1219 180° South 435 501 38,000  Level Jacksonville Center
Fri 07:04:30 PM 29.9656 -82.0917 170° South 459 528 38,000  Level Jacksonville Center
Fri 07:05:30 PM 29.8422 -82.0642 169° South 465 535 38,000  Level Jacksonville Center
Fri 07:06:30 PM 29.7292 -82.0386 169° South 465 535 38,000 -50 Level Jacksonville Center
Fri 07:07:30 PM 29.5911 -82.0161 172° South 465 535 37,900 -900 Descending Jacksonville Center
Fri 07:08:30 PM 29.4658 -81.9908 170° South 465 535 36,200 -1,450 Descending Jacksonville Center
Fri 07:09:30 PM 29.3383 -81.9658 170° South 465 535 35,000 -600 Descending Jacksonville Center
Fri 07:10:30 PM 29.2339 -81.9478 171° South 465 535 35,000 -50 Level Jacksonville Center
Fri 07:11:30 PM 29.0936 -81.9136 168° South 465 535 34,900 -1,475 Descending Jacksonville Center
Fri 07:13:33 PM 28.8081 -81.8611 171° South 482 555 30,500 -2,131 Descending Miami Center
Fri 07:14:33 PM 28.6733 -81.8364 171° South 482 555 28,400 -1,750 Descending Miami Center
Fri 07:15:33 PM 28.5428 -81.8069 169° South 487 560 27,000 -700 Descending Miami Center
Fri 07:16:33 PM 28.4108 -81.7681 165° South 487 560 27,000  Level Miami Center
Fri 07:17:33 PM 28.2847 -81.7342 167° South 501 577 27,000 -900 Level Miami Center
Fri 07:18:33 PM 28.1506 -81.6931 165° South 507 583 25,200 -2,150 Descending Miami Center
Fri 07:19:33 PM 28.0239 -81.6689 170° South 493 567 22,700 -2,450 Descending Miami Center
Fri 07:20:33 PM 27.9106 -81.6900 189° South 449 517 20,300 -2,500 Descending Miami Center
Fri 07:21:33 PM 27.7844 -81.6564 167° South 428 493 17,700 -2,550 Descending Miami Center
Fri 07:22:33 PM 27.6706 -81.6281 168° South 420 483 15,200 -2,250 Descending Miami Center
Fri 07:23:33 PM 27.5753 -81.6078 169° South 415 478 13,200 -2,250 Descending Miami Center
Fri 07:24:33 PM 27.4675 -81.5847 169° South 404 465 10,700 -1,600 Descending Miami Center
Fri 07:25:33 PM 27.3700 -81.5642 169° South 384 442 10,000 -350 Descending Miami Center
Fri 07:26:33 PM 27.2706 -81.5439 170° South 373 429 10,000  Level Miami Center
Fri 07:27:33 PM 27.1689 -81.5211 169° South 368 423 10,000  Level Miami Center
Fri 07:28:33 PM 27.0694 -81.4983 168° South 368 423 10,000 -100 Level Miami Center
Fri 07:29:33 PM 26.9725 -81.4667 164° South 353 406 9,800 -900 Descending Miami Center
Fri 07:30:33 PM 26.9006 -81.4289 155° Southeast 314 361 8,200 -900 Descending Miami Center
Fri 07:31:33 PM 26.8306 -81.3936 156° South 281 323 8,000 -100 Descending Miami Center
Fri 07:32:33 PM 26.7556 -81.3906 178° South 269 310 8,000  Level Miami Center
Fri 07:33:33 PM 26.6781 -81.3969 184° South 269 310 8,000  Level Miami Center
Fri 07:34:33 PM 26.6008 -81.3986 181° South 275 316 8,000  Level Miami Center
Fri 07:35:33 PM 26.5256 -81.4025 183° South 275 316 8,000  Level Miami Center
Fri 07:37:00 PM 26.3785 -81.4419 200° South  Level FlightAware Approximate
Fri 07:44:00 PM 26.1500 -81.7667 246° West  Level FlightAware Approximate
Fri 07:45:00 PM 26.1524 -81.7756 246° West  Level Estimated
Fri 07:46:00 PM 26.1524 -81.7756 246° West  Level Estimated
Fri 07:47:00 PM 26.1524 -81.7756 246° West  Level Estimated
Fri 07:48:00 PM 26.1524 -81.7756 246° West  Level Estimated
Fri 07:49:00 PM 26.1524 -81.7756 246° West  Level Estimated
Fri 07:50:00 PM 26.1524 -81.7756 246° West  Level Estimated
Fri 07:51:00 PM 26.1524 -81.7756 246° West  Level Estimated
Fri 07:52:00 PM 26.1524 -81.7756 246° West  Level Estimated
Fri 07:53:00 PM 26.1524 -81.7756 246° West  Level Estimated
Fri 07:54:00 PM 26.1524 -81.7756 246° West  Level Estimated
Fri 07:55:00 PM 26.1524 -81.7756 246° West  Level Estimated
Fri 07:56:00 PM 26.1524 -81.7756 246° West  Level Estimated

Login

Don't have an account? Register now (free) for customized features, flight alerts, and more!